Delta — WDF9528 — position and weather

sailwx.info

Track history (hours):
 
Tides and Currents Weather Stations Pressure Air Temp Water Temp Dewpoint Dewpoint Depression Visibility Wind Speed Wind Dir Waves Ship Positions

Delta

Owner: Robbins Maritime, Norfolk, VA. More information available from US FCC via Universal Licensing System and Coast Guard Vessel Documentation Center.

Last reported at 2017-Oct-19 20:02 UTC. Time now 2017-Oct-20 16:11 UTC.
Position N 36°51' W 076°18'.

; draft 3.2 m.

Type: Tug. MMSI: 367506070.

Date/timePositionNaut miles runAvg speedWind from/ knotsBaromVisibWave heightAir tempDewpointWater temp
2017-Oct-19 20:02N 36°51' W 076°18'0 6.4
2017-Oct-19 20:00N 36°50' W 076°18'3 6.2
2017-Oct-19 19:30N 36°47' W 076°18'2 3.8
2017-Oct-19 18:58N 36°45' W 076°18'0 0.5
2017-Oct-19 18:29N 36°45' W 076°18'0 0.0
2017-Oct-19 17:37N 36°45' W 076°18'0 0.0
2017-Oct-19 17:26N 36°45' W 076°18'0 1.2
2017-Oct-19 17:00N 36°46' W 076°18'1 2.3
2017-Oct-19 16:30N 36°47' W 076°18'1 2.3
2017-Oct-19 16:00N 36°48' W 076°17'0 0.0
2017-Oct-19 15:30N 36°48' W 076°17'0 0.0
2017-Oct-19 15:00N 36°48' W 076°17'0 0.0
2017-Oct-19 14:30N 36°48' W 076°17'0 0.0
2017-Oct-19 14:00N 36°48' W 076°17'0 0.0
2017-Oct-19 13:30N 36°48' W 076°17'0 0.0
2017-Oct-19 13:00N 36°48' W 076°17'0 0.0
2017-Oct-19 12:30N 36°48' W 076°17'0 0.0
2017-Oct-19 12:00N 36°48' W 076°17'0 0.0
2017-Oct-19 11:30N 36°48' W 076°17'0 0.0
2017-Oct-19 11:00N 36°48' W 076°17'0 0.0
2017-Oct-19 10:30N 36°48' W 076°17'0 0.0
2017-Oct-19 10:00N 36°48' W 076°17'0 0.0
2017-Oct-19 09:30N 36°48' W 076°17'0 0.0
2017-Oct-19 09:00N 36°48' W 076°17'0 0.0
2017-Oct-19 08:30N 36°48' W 076°17'0 0.0
2017-Oct-19 08:00N 36°48' W 076°17'0 0.0
2017-Oct-19 07:30N 36°48' W 076°17'0 0.0
2017-Oct-19 07:00N 36°48' W 076°17'0 0.0
2017-Oct-19 06:30N 36°48' W 076°17'0 0.0
2017-Oct-19 06:00N 36°48' W 076°17'0 0.0
2017-Oct-19 05:30N 36°48' W 076°17'0 0.0
2017-Oct-19 05:00N 36°48' W 076°17'0 0.0
2017-Oct-19 04:30N 36°48' W 076°17'0 0.0
2017-Oct-19 04:00N 36°48' W 076°17'0 0.0
2017-Oct-19 03:30N 36°48' W 076°17'0 0.0
2017-Oct-19 03:00N 36°48' W 076°17'0 0.0
2017-Oct-19 02:30N 36°48' W 076°17'0 0.0
2017-Oct-19 02:00N 36°48' W 076°17'0 0.0
2017-Oct-19 01:30N 36°48' W 076°17'0 0.0
2017-Oct-19 01:00N 36°48' W 076°17'0 0.0
2017-Oct-19 00:30N 36°48' W 076°17'0 0.0
2017-Oct-19 00:00N 36°48' W 076°17'2 3.2
2017-Oct-18 23:30N 36°49' W 076°17'1 1.8
2017-Oct-18 23:00N 36°50' W 076°18'0 0.2
2017-Oct-18 22:28N 36°51' W 076°17'0 0.2
2017-Oct-18 22:00N 36°51' W 076°17'0 0.4
2017-Oct-18 21:30N 36°50' W 076°18'0 0.2
2017-Oct-18 20:54N 36°50' W 076°17'0 0.0
2017-Oct-18 20:30N 36°50' W 076°17'0 0.0
2017-Oct-18 20:00N 36°50' W 076°17'0 0.0
2017-Oct-18 19:30N 36°50' W 076°17'0 0.0
2017-Oct-18 19:00N 36°50' W 076°17'0 0.0
2017-Oct-18 18:30N 36°50' W 076°17'0 0.0
2017-Oct-18 18:00N 36°50' W 076°17'0 0.0
2017-Oct-18 17:30N 36°50' W 076°17'0 0.1
2017-Oct-18 16:59N 36°50' W 076°17'0 0.2
2017-Oct-18 16:30N 36°50' W 076°17'0 0.0
2017-Oct-18 15:58N 36°50' W 076°17'2 0.2
2017-Oct-18 09:22N 36°49' W 076°17'1 1.8
2017-Oct-18 08:49N 36°48' W 076°17'0 0.0
2017-Oct-18 08:09N 36°48' W 076°17'0 0.0
2017-Oct-18 08:00N 36°48' W 076°17'0 0.0
2017-Oct-18 07:30N 36°48' W 076°17'0 0.0
2017-Oct-18 07:00N 36°48' W 076°17'0 0.0
2017-Oct-18 06:28N 36°48' W 076°17'0 0.0
2017-Oct-18 06:00N 36°48' W 076°17'0 0.0
2017-Oct-18 05:26N 36°48' W 076°17'0 0.0
2017-Oct-18 04:59N 36°48' W 076°17'0 0.0
2017-Oct-18 04:22N 36°48' W 076°17'0 0.0
2017-Oct-18 03:50N 36°48' W 076°17'0 0.0
2017-Oct-18 03:13N 36°48' W 076°17'0 0.0
2017-Oct-18 02:04N 36°48' W 076°17'0 0.0
2017-Oct-18 01:50N 36°48' W 076°17'0 0.0
2017-Oct-18 00:14N 36°48' W 076°17'0 0.0
2017-Oct-17 23:53N 36°48' W 076°17'0 0.0
2017-Oct-17 22:07N 36°48' W 076°17'0 0.0
2017-Oct-17 21:54N 36°48' W 076°17'0 0.0
2017-Oct-17 21:05N 36°48' W 076°17'0 0.1
2017-Oct-17 21:00N 36°48' W 076°17'3 1.1
2017-Oct-17 18:30N 36°51' W 076°18'3 2.3
2017-Oct-17 17:20N 36°48' W 076°17'0 0.0
2017-Oct-17 16:53N 36°48' W 076°17'0 0.0
2017-Oct-17 16:22N 36°48' W 076°17'0 0.0
2017-Oct-17 15:14N 36°48' W 076°17'2 0.5
2017-Oct-17 10:30N 36°50' W 076°17'0 0.2
2017-Oct-17 09:35N 36°50' W 076°18'1 6.9
2017-Oct-17 09:22N 36°49' W 076°17'1 1.1
2017-Oct-17 08:34N 36°48' W 076°17'0 0.1
2017-Oct-17 08:27N 36°48' W 076°17'0 0.0
2017-Oct-17 08:00N 36°48' W 076°17'0 0.0
2017-Oct-17 07:30N 36°48' W 076°17'0 0.0
2017-Oct-17 07:00N 36°48' W 076°17'0 0.0
2017-Oct-17 06:30N 36°48' W 076°17'0 0.0
2017-Oct-17 06:00N 36°48' W 076°17'0 0.0
2017-Oct-17 05:30N 36°48' W 076°17'0 0.0
2017-Oct-17 05:00N 36°48' W 076°17'0 0.0
2017-Oct-17 04:30N 36°48' W 076°17'0 0.0
2017-Oct-17 04:00N 36°48' W 076°17'0 0.0
2017-Oct-17 03:30N 36°48' W 076°17'0 0.0
2017-Oct-17 03:00N 36°48' W 076°17'0 0.0
2017-Oct-17 02:30N 36°48' W 076°17'0 0.0
2017-Oct-17 02:00N 36°48' W 076°17'0 0.0
2017-Oct-17 01:30N 36°48' W 076°17'0 0.0
2017-Oct-17 01:00N 36°48' W 076°17'0 0.0
2017-Oct-17 00:30N 36°48' W 076°17'0 0.0
2017-Oct-17 00:00N 36°48' W 076°17'0 0.0
2017-Oct-16 23:30N 36°48' W 076°17'0 0.0
2017-Oct-16 23:00N 36°48' W 076°17'0 0.0
2017-Oct-16 22:30N 36°48' W 076°17'0 0.0
2017-Oct-16 22:00N 36°48' W 076°17'0 0.0
2017-Oct-16 21:30N 36°48' W 076°17'0 0.0
2017-Oct-16 21:00N 36°48' W 076°17'0 0.2
2017-Oct-16 20:30N 36°48' W 076°17'2 4.3
2017-Oct-16 20:00N 36°50' W 076°18'1 0.4
2017-Oct-16 18:14N 36°51' W 076°18'1 6.4
2017-Oct-16 18:00N 36°49' W 076°17'2 3.2
2017-Oct-16 17:30N 36°48' W 076°17'0 0.0
2017-Oct-16 17:00N 36°48' W 076°17'0 0.0
2017-Oct-16 16:30N 36°48' W 076°17'0 0.0
2017-Oct-16 16:00N 36°48' W 076°17'0 0.0
2017-Oct-16 15:30N 36°48' W 076°17'0 0.1
2017-Oct-16 15:00N 36°48' W 076°17'0 0.0
2017-Oct-16 14:30N 36°48' W 076°17'1 0.9
2017-Oct-16 13:30N 36°49' W 076°17'0 0.7
2017-Oct-16 13:00N 36°49' W 076°17'0 0.0
2017-Oct-16 12:30N 36°49' W 076°17'0 0.0
2017-Oct-16 12:00N 36°49' W 076°17'0 0.0
2017-Oct-16 11:30N 36°49' W 076°17'0 0.0
2017-Oct-16 11:00N 36°49' W 076°17'1 0.0
2017-Oct-14 17:12N 36°50' W 076°17'0 0.0
2017-Oct-13 19:19N 36°50' W 076°17'0 0.0
2017-Oct-13 19:00N 36°50' W 076°17'0 0.0
2017-Oct-13 18:26N 36°50' W 076°17'0 0.0
2017-Oct-13 17:56N 36°50' W 076°17'0 0.0
2017-Oct-13 17:02N 36°50' W 076°17'0 0.1
2017-Oct-13 16:58N 36°50' W 076°17'0 0.0
2017-Oct-13 12:50N 36°50' W 076°17'0 0.0
2017-Oct-13 12:30N 36°50' W 076°17'0 0.0
2017-Oct-13 11:48N 36°50' W 076°17'0 0.0
2017-Oct-13 04:09N 36°50' W 076°17'0 0.0
2017-Oct-13 03:48N 36°50' W 076°17'0 0.0
2017-Oct-13 03:30N 36°50' W 076°17'0 0.0
2017-Oct-13 02:43N 36°50' W 076°17'0 0.0
2017-Oct-13 02:23N 36°50' W 076°17'0 0.0
2017-Oct-13 02:01N 36°50' W 076°17'0 0.0
2017-Oct-13 00:25N 36°50' W 076°17'0 0.0
2017-Oct-12 23:58N 36°50' W 076°17'0 0.0
2017-Oct-12 23:28N 36°50' W 076°17'0 0.0
2017-Oct-12 22:58N 36°50' W 076°17'0 0.0
2017-Oct-12 22:30N 36°50' W 076°17'0 0.0
2017-Oct-12 21:32N 36°50' W 076°17'0 0.1
2017-Oct-12 21:30N 36°50' W 076°17'0 0.0
2017-Oct-12 21:00N 36°50' W 076°17'0 0.0
2017-Oct-12 20:20N 36°50' W 076°17'0 0.0
2017-Oct-12 20:00N 36°50' W 076°17'0 0.0
2017-Oct-12 19:20N 36°50' W 076°17'0 0.0
2017-Oct-12 19:00N 36°50' W 076°17'0 0.0
2017-Oct-12 18:31N 36°50' W 076°17'0 0.0
2017-Oct-12 18:00N 36°50' W 076°17'0 0.0
2017-Oct-12 17:31N 36°50' W 076°17'0 0.0
2017-Oct-10 19:21N 36°50' W 076°17'0 0.3
2017-Oct-10 18:57N 36°50' W 076°18'  
Track history (hours):
 
Tides and Currents Weather Stations Pressure Air Temp Water Temp Dewpoint Dewpoint Depression Visibility Wind Speed Wind Dir Waves Ship Positions

Delta

Owner: Robbins Maritime, Norfolk, VA. More information available from US FCC via Universal Licensing System and Coast Guard Vessel Documentation Center.

Last reported at 2017-Oct-19 20:02 UTC. Time now 2017-Oct-20 16:11 UTC.
Position N 36°51' W 076°18'.

; draft 3.2 m.

Type: Tug. MMSI: 367506070.

Date/timePositionNaut miles runAvg speedWind from/ knotsBaromVisibWave heightAir tempDewpointWater temp
2017-Oct-19 20:02N 36°51' W 076°18'0 6.4
2017-Oct-19 20:00N 36°50' W 076°18'3 6.2
2017-Oct-19 19:30N 36°47' W 076°18'2 3.8
2017-Oct-19 18:58N 36°45' W 076°18'0 0.5
2017-Oct-19 18:29N 36°45' W 076°18'0 0.0
2017-Oct-19 17:37N 36°45' W 076°18'0 0.0
2017-Oct-19 17:26N 36°45' W 076°18'0 1.2
2017-Oct-19 17:00N 36°46' W 076°18'1 2.3
2017-Oct-19 16:30N 36°47' W 076°18'1 2.3
2017-Oct-19 16:00N 36°48' W 076°17'0 0.0
2017-Oct-19 15:30N 36°48' W 076°17'0 0.0
2017-Oct-19 15:00N 36°48' W 076°17'0 0.0
2017-Oct-19 14:30N 36°48' W 076°17'0 0.0
2017-Oct-19 14:00N 36°48' W 076°17'0 0.0
2017-Oct-19 13:30N 36°48' W 076°17'0 0.0
2017-Oct-19 13:00N 36°48' W 076°17'0 0.0
2017-Oct-19 12:30N 36°48' W 076°17'0 0.0
2017-Oct-19 12:00N 36°48' W 076°17'0 0.0
2017-Oct-19 11:30N 36°48' W 076°17'0 0.0
2017-Oct-19 11:00N 36°48' W 076°17'0 0.0
2017-Oct-19 10:30N 36°48' W 076°17'0 0.0
2017-Oct-19 10:00N 36°48' W 076°17'0 0.0
2017-Oct-19 09:30N 36°48' W 076°17'0 0.0
2017-Oct-19 09:00N 36°48' W 076°17'0 0.0
2017-Oct-19 08:30N 36°48' W 076°17'0 0.0
2017-Oct-19 08:00N 36°48' W 076°17'0 0.0
2017-Oct-19 07:30N 36°48' W 076°17'0 0.0
2017-Oct-19 07:00N 36°48' W 076°17'0 0.0
2017-Oct-19 06:30N 36°48' W 076°17'0 0.0
2017-Oct-19 06:00N 36°48' W 076°17'0 0.0
2017-Oct-19 05:30N 36°48' W 076°17'0 0.0
2017-Oct-19 05:00N 36°48' W 076°17'0 0.0
2017-Oct-19 04:30N 36°48' W 076°17'0 0.0
2017-Oct-19 04:00N 36°48' W 076°17'0 0.0
2017-Oct-19 03:30N 36°48' W 076°17'0 0.0
2017-Oct-19 03:00N 36°48' W 076°17'0 0.0
2017-Oct-19 02:30N 36°48' W 076°17'0 0.0
2017-Oct-19 02:00N 36°48' W 076°17'0 0.0
2017-Oct-19 01:30N 36°48' W 076°17'0 0.0
2017-Oct-19 01:00N 36°48' W 076°17'0 0.0
2017-Oct-19 00:30N 36°48' W 076°17'0 0.0
2017-Oct-19 00:00N 36°48' W 076°17'2 3.2
2017-Oct-18 23:30N 36°49' W 076°17'1 1.8
2017-Oct-18 23:00N 36°50' W 076°18'0 0.2
2017-Oct-18 22:28N 36°51' W 076°17'0 0.2
2017-Oct-18 22:00N 36°51' W 076°17'0 0.4
2017-Oct-18 21:30N 36°50' W 076°18'0 0.2
2017-Oct-18 20:54N 36°50' W 076°17'0 0.0
2017-Oct-18 20:30N 36°50' W 076°17'0 0.0
2017-Oct-18 20:00N 36°50' W 076°17'0 0.0
2017-Oct-18 19:30N 36°50' W 076°17'0 0.0
2017-Oct-18 19:00N 36°50' W 076°17'0 0.0
2017-Oct-18 18:30N 36°50' W 076°17'0 0.0
2017-Oct-18 18:00N 36°50' W 076°17'0 0.0
2017-Oct-18 17:30N 36°50' W 076°17'0 0.1
2017-Oct-18 16:59N 36°50' W 076°17'0 0.2
2017-Oct-18 16:30N 36°50' W 076°17'0 0.0
2017-Oct-18 15:58N 36°50' W 076°17'2 0.2
2017-Oct-18 09:22N 36°49' W 076°17'1 1.8
2017-Oct-18 08:49N 36°48' W 076°17'0 0.0
2017-Oct-18 08:09N 36°48' W 076°17'0 0.0
2017-Oct-18 08:00N 36°48' W 076°17'0 0.0
2017-Oct-18 07:30N 36°48' W 076°17'0 0.0
2017-Oct-18 07:00N 36°48' W 076°17'0 0.0
2017-Oct-18 06:28N 36°48' W 076°17'0 0.0
2017-Oct-18 06:00N 36°48' W 076°17'0 0.0
2017-Oct-18 05:26N 36°48' W 076°17'0 0.0
2017-Oct-18 04:59N 36°48' W 076°17'0 0.0
2017-Oct-18 04:22N 36°48' W 076°17'0 0.0
2017-Oct-18 03:50N 36°48' W 076°17'0 0.0
2017-Oct-18 03:13N 36°48' W 076°17'0 0.0
2017-Oct-18 02:04N 36°48' W 076°17'0 0.0
2017-Oct-18 01:50N 36°48' W 076°17'0 0.0
2017-Oct-18 00:14N 36°48' W 076°17'0 0.0
2017-Oct-17 23:53N 36°48' W 076°17'0 0.0
2017-Oct-17 22:07N 36°48' W 076°17'0 0.0
2017-Oct-17 21:54N 36°48' W 076°17'0 0.0
2017-Oct-17 21:05N 36°48' W 076°17'0 0.1
2017-Oct-17 21:00N 36°48' W 076°17'3 1.1
2017-Oct-17 18:30N 36°51' W 076°18'3 2.3
2017-Oct-17 17:20N 36°48' W 076°17'0 0.0
2017-Oct-17 16:53N 36°48' W 076°17'0 0.0
2017-Oct-17 16:22N 36°48' W 076°17'0 0.0
2017-Oct-17 15:14N 36°48' W 076°17'2 0.5
2017-Oct-17 10:30N 36°50' W 076°17'0 0.2
2017-Oct-17 09:35N 36°50' W 076°18'1 6.9
2017-Oct-17 09:22N 36°49' W 076°17'1 1.1
2017-Oct-17 08:34N 36°48' W 076°17'0 0.1
2017-Oct-17 08:27N 36°48' W 076°17'0 0.0
2017-Oct-17 08:00N 36°48' W 076°17'0 0.0
2017-Oct-17 07:30N 36°48' W 076°17'0 0.0
2017-Oct-17 07:00N 36°48' W 076°17'0 0.0
2017-Oct-17 06:30N 36°48' W 076°17'0 0.0
2017-Oct-17 06:00N 36°48' W 076°17'0 0.0
2017-Oct-17 05:30N 36°48' W 076°17'0 0.0
2017-Oct-17 05:00N 36°48' W 076°17'0 0.0
2017-Oct-17 04:30N 36°48' W 076°17'0 0.0
2017-Oct-17 04:00N 36°48' W 076°17'0 0.0
2017-Oct-17 03:30N 36°48' W 076°17'0 0.0
2017-Oct-17 03:00N 36°48' W 076°17'0 0.0
2017-Oct-17 02:30N 36°48' W 076°17'0 0.0
2017-Oct-17 02:00N 36°48' W 076°17'0 0.0
2017-Oct-17 01:30N 36°48' W 076°17'0 0.0
2017-Oct-17 01:00N 36°48' W 076°17'0 0.0
2017-Oct-17 00:30N 36°48' W 076°17'0 0.0
2017-Oct-17 00:00N 36°48' W 076°17'0 0.0
2017-Oct-16 23:30N 36°48' W 076°17'0 0.0
2017-Oct-16 23:00N 36°48' W 076°17'0 0.0
2017-Oct-16 22:30N 36°48' W 076°17'0 0.0
2017-Oct-16 22:00N 36°48' W 076°17'0 0.0
2017-Oct-16 21:30N 36°48' W 076°17'0 0.0
2017-Oct-16 21:00N 36°48' W 076°17'0 0.2
2017-Oct-16 20:30N 36°48' W 076°17'2 4.3
2017-Oct-16 20:00N 36°50' W 076°18'1 0.4
2017-Oct-16 18:14N 36°51' W 076°18'1 6.4
2017-Oct-16 18:00N 36°49' W 076°17'2 3.2
2017-Oct-16 17:30N 36°48' W 076°17'0 0.0
2017-Oct-16 17:00N 36°48' W 076°17'0 0.0
2017-Oct-16 16:30N 36°48' W 076°17'0 0.0
2017-Oct-16 16:00N 36°48' W 076°17'0 0.0
2017-Oct-16 15:30N 36°48' W 076°17'0 0.1
2017-Oct-16 15:00N 36°48' W 076°17'0 0.0
2017-Oct-16 14:30N 36°48' W 076°17'1 0.9
2017-Oct-16 13:30N 36°49' W 076°17'0 0.7
2017-Oct-16 13:00N 36°49' W 076°17'0 0.0
2017-Oct-16 12:30N 36°49' W 076°17'0 0.0
2017-Oct-16 12:00N 36°49' W 076°17'0 0.0
2017-Oct-16 11:30N 36°49' W 076°17'0 0.0
2017-Oct-16 11:00N 36°49' W 076°17'1 0.0
2017-Oct-14 17:12N 36°50' W 076°17'0 0.0
2017-Oct-13 19:19N 36°50' W 076°17'0 0.0
2017-Oct-13 19:00N 36°50' W 076°17'0 0.0
2017-Oct-13 18:26N 36°50' W 076°17'0 0.0
2017-Oct-13 17:56N 36°50' W 076°17'0 0.0
2017-Oct-13 17:02N 36°50' W 076°17'0 0.1
2017-Oct-13 16:58N 36°50' W 076°17'0 0.0
2017-Oct-13 12:50N 36°50' W 076°17'0 0.0
2017-Oct-13 12:30N 36°50' W 076°17'0 0.0
2017-Oct-13 11:48N 36°50' W 076°17'0 0.0
2017-Oct-13 04:09N 36°50' W 076°17'0 0.0
2017-Oct-13 03:48N 36°50' W 076°17'0 0.0
2017-Oct-13 03:30N 36°50' W 076°17'0 0.0
2017-Oct-13 02:43N 36°50' W 076°17'0 0.0
2017-Oct-13 02:23N 36°50' W 076°17'0 0.0
2017-Oct-13 02:01N 36°50' W 076°17'0 0.0
2017-Oct-13 00:25N 36°50' W 076°17'0 0.0
2017-Oct-12 23:58N 36°50' W 076°17'0 0.0
2017-Oct-12 23:28N 36°50' W 076°17'0 0.0
2017-Oct-12 22:58N 36°50' W 076°17'0 0.0
2017-Oct-12 22:30N 36°50' W 076°17'0 0.0
2017-Oct-12 21:32N 36°50' W 076°17'0 0.1
2017-Oct-12 21:30N 36°50' W 076°17'0 0.0
2017-Oct-12 21:00N 36°50' W 076°17'0 0.0
2017-Oct-12 20:20N 36°50' W 076°17'0 0.0
2017-Oct-12 20:00N 36°50' W 076°17'0 0.0
2017-Oct-12 19:20N 36°50' W 076°17'0 0.0
2017-Oct-12 19:00N 36°50' W 076°17'0 0.0
2017-Oct-12 18:31N 36°50' W 076°17'0 0.0
2017-Oct-12 18:00N 36°50' W 076°17'0 0.0
2017-Oct-12 17:31N 36°50' W 076°17'0 0.0
2017-Oct-10 19:21N 36°50' W 076°17'0 0.3
2017-Oct-10 18:57N 36°50' W 076°18'  

Dump ship's entire track history